sensor_id;sensor_type;location;lat;lon;timestamp;pressure;altitude;pressure_sealevel;temperature;humidity
63500;BME280;49654;51.142;14.924;2022-07-29T00:01:33;99404.19;;;15.06;56.10
63500;BME280;49654;51.142;14.924;2022-07-29T00:04:00;99407.63;;;15.00;55.98
63500;BME280;49654;51.142;14.924;2022-07-29T00:06:27;99413.59;;;14.87;56.81
63500;BME280;49654;51.142;14.924;2022-07-29T00:08:54;99408.38;;;14.94;56.96
63500;BME280;49654;51.142;14.924;2022-07-29T00:11:20;99397.28;;;14.78;57.39
63500;BME280;49654;51.142;14.924;2022-07-29T00:13:47;99416.41;;;14.86;58.00
63500;BME280;49654;51.142;14.924;2022-07-29T00:16:16;99418.03;;;14.93;57.97
63500;BME280;49654;51.142;14.924;2022-07-29T00:18:43;99417.44;;;14.98;57.86
63500;BME280;49654;51.142;14.924;2022-07-29T00:21:09;99397.75;;;14.95;57.46
63500;BME280;49654;51.142;14.924;2022-07-29T00:23:36;99407.78;;;14.92;57.73
63500;BME280;49654;51.142;14.924;2022-07-29T00:26:03;99402.19;;;14.95;57.31
63500;BME280;49654;51.142;14.924;2022-07-29T00:28:30;99398.72;;;14.94;56.70
63500;BME280;49654;51.142;14.924;2022-07-29T00:30:57;99378.78;;;14.73;56.81
63500;BME280;49654;51.142;14.924;2022-07-29T00:33:25;99380.75;;;14.65;56.67
63500;BME280;49654;51.142;14.924;2022-07-29T00:35:52;99389.63;;;14.70;57.39
63500;BME280;49654;51.142;14.924;2022-07-29T00:38:19;99373.09;;;14.57;58.04
63500;BME280;49654;51.142;14.924;2022-07-29T00:40:47;99368.16;;;14.47;57.73
63500;BME280;49654;51.142;14.924;2022-07-29T00:43:14;99365.56;;;14.47;58.03
63500;BME280;49654;51.142;14.924;2022-07-29T00:45:41;99387.13;;;14.49;58.08
63500;BME280;49654;51.142;14.924;2022-07-29T00:48:08;99376.16;;;14.39;58.10
63500;BME280;49654;51.142;14.924;2022-07-29T00:50:36;99377.16;;;14.38;58.38
63500;BME280;49654;51.142;14.924;2022-07-29T00:53:06;99380.94;;;14.28;58.91
63500;BME280;49654;51.142;14.924;2022-07-29T00:55:34;99364.41;;;14.21;59.04
63500;BME280;49654;51.142;14.924;2022-07-29T00:58:01;99369.41;;;14.16;59.31
63500;BME280;49654;51.142;14.924;2022-07-29T01:00:29;99370.63;;;14.14;59.88
63500;BME280;49654;51.142;14.924;2022-07-29T01:02:56;99366.59;;;14.11;59.79
63500;BME280;49654;51.142;14.924;2022-07-29T01:05:24;99354.72;;;14.09;60.36
63500;BME280;49654;51.142;14.924;2022-07-29T01:07:54;99362.75;;;14.07;60.15
63500;BME280;49654;51.142;14.924;2022-07-29T01:10:22;99358.38;;;13.86;61.85
63500;BME280;49654;51.142;14.924;2022-07-29T01:12:52;99348.16;;;13.85;61.42
63500;BME280;49654;51.142;14.924;2022-07-29T01:15:20;99359.84;;;13.95;61.19
63500;BME280;49654;51.142;14.924;2022-07-29T01:17:52;99331.28;;;13.87;60.70
63500;BME280;49654;51.142;14.924;2022-07-29T01:20:26;99341.19;;;13.98;60.73
63500;BME280;49654;51.142;14.924;2022-07-29T01:23:17;99359.13;;;14.08;60.45
63500;BME280;49654;51.142;14.924;2022-07-29T01:26:03;99357.06;;;13.97;60.13
63500;BME280;49654;51.142;14.924;2022-07-29T01:28:49;99348.16;;;13.85;60.03
63500;BME280;49654;51.142;14.924;2022-07-29T01:31:22;99346.53;;;13.84;60.11
63500;BME280;49654;51.142;14.924;2022-07-29T01:33:58;99350.56;;;13.86;60.12
63500;BME280;49654;51.142;14.924;2022-07-29T01:36:30;99322.78;;;13.72;60.15
63500;BME280;49654;51.142;14.924;2022-07-29T01:39:04;99339.03;;;13.74;60.33
63500;BME280;49654;51.142;14.924;2022-07-29T01:41:34;99342.75;;;13.58;60.79
63500;BME280;49654;51.142;14.924;2022-07-29T01:44:11;99318.03;;;13.54;60.68
63500;BME280;49654;51.142;14.924;2022-07-29T01:46:42;99322.63;;;13.52;61.55
63500;BME280;49654;51.142;14.924;2022-07-29T01:49:13;99325.66;;;13.56;61.82
63500;BME280;49654;51.142;14.924;2022-07-29T01:51:45;99324.09;;;13.33;63.78
63500;BME280;49654;51.142;14.924;2022-07-29T01:54:19;99325.13;;;13.39;63.00
63500;BME280;49654;51.142;14.924;2022-07-29T01:56:49;99324.84;;;13.55;61.68
63500;BME280;49654;51.142;14.924;2022-07-29T01:59:19;99323.28;;;13.61;61.17
63500;BME280;49654;51.142;14.924;2022-07-29T02:01:48;99315.19;;;13.49;60.37
63500;BME280;49654;51.142;14.924;2022-07-29T02:04:17;99311.94;;;13.47;60.12
63500;BME280;49654;51.142;14.924;2022-07-29T02:06:47;99317.53;;;13.44;60.03
63500;BME280;49654;51.142;14.924;2022-07-29T02:09:17;99317.31;;;13.39;60.15
63500;BME280;49654;51.142;14.924;2022-07-29T02:11:48;99313.28;;;13.36;60.80
63500;BME280;49654;51.142;14.924;2022-07-29T02:14:19;99305.06;;;13.18;61.63
63500;BME280;49654;51.142;14.924;2022-07-29T02:16:47;99312.63;;;13.13;61.57
63500;BME280;49654;51.142;14.924;2022-07-29T02:19:17;99309.47;;;13.17;61.46
63500;BME280;49654;51.142;14.924;2022-07-29T02:21:45;99310.00;;;13.27;61.49
63500;BME280;49654;51.142;14.924;2022-07-29T02:24:13;99313.03;;;13.31;61.80
63500;BME280;49654;51.142;14.924;2022-07-29T02:26:42;99316.03;;;13.28;61.91
63500;BME280;49654;51.142;14.924;2022-07-29T02:29:10;99318.00;;;13.26;61.39
63500;BME280;49654;51.142;14.924;2022-07-29T02:31:41;99312.72;;;13.19;61.60
63500;BME280;49654;51.142;14.924;2022-07-29T02:34:10;99299.81;;;13.11;61.53
63500;BME280;49654;51.142;14.924;2022-07-29T02:36:38;99319.09;;;13.17;61.39
63500;BME280;49654;51.142;14.924;2022-07-29T02:39:07;99319.84;;;13.11;61.49
63500;BME280;49654;51.142;14.924;2022-07-29T02:41:40;99313.13;;;13.01;62.26
63500;BME280;49654;51.142;14.924;2022-07-29T02:44:10;99315.31;;;12.98;62.70
63500;BME280;49654;51.142;14.924;2022-07-29T02:46:43;99300.84;;;12.95;62.88
63500;BME280;49654;51.142;14.924;2022-07-29T02:49:15;99315.81;;;13.08;62.64
63500;BME280;49654;51.142;14.924;2022-07-29T02:51:45;99317.41;;;13.09;63.25
63500;BME280;49654;51.142;14.924;2022-07-29T02:54:20;99308.78;;;13.09;62.96
63500;BME280;49654;51.142;14.924;2022-07-29T02:56:49;99281.81;;;12.95;62.51
63500;BME280;49654;51.142;14.924;2022-07-29T02:59:23;99317.25;;;13.11;62.81
63500;BME280;49654;51.142;14.924;2022-07-29T03:01:54;99315.00;;;13.08;62.74
63500;BME280;49654;51.142;14.924;2022-07-29T03:04:24;99268.56;;;12.75;63.36
63500;BME280;49654;51.142;14.924;2022-07-29T03:06:52;99304.75;;;12.85;64.79
63500;BME280;49654;51.142;14.924;2022-07-29T03:09:20;99310.53;;;13.01;64.57
63500;BME280;49654;51.142;14.924;2022-07-29T03:11:48;99312.84;;;13.33;63.85
63500;BME280;49654;51.142;14.924;2022-07-29T03:14:16;99296.50;;;13.45;63.39
63500;BME280;49654;51.142;14.924;2022-07-29T03:16:44;99310.66;;;13.64;62.75
63500;BME280;49654;51.142;14.924;2022-07-29T03:19:13;99319.22;;;13.80;61.65
63500;BME280;49654;51.142;14.924;2022-07-29T03:21:39;99317.56;;;13.78;61.42
63500;BME280;49654;51.142;14.924;2022-07-29T03:24:07;99308.50;;;13.68;62.15
63500;BME280;49654;51.142;14.924;2022-07-29T03:26:34;99312.19;;;13.80;61.93
63500;BME280;49654;51.142;14.924;2022-07-29T03:29:00;99310.81;;;13.84;62.17
63500;BME280;49654;51.142;14.924;2022-07-29T03:31:27;99310.72;;;13.71;62.56
63500;BME280;49654;51.142;14.924;2022-07-29T03:33:54;99318.56;;;13.77;62.93
63500;BME280;49654;51.142;14.924;2022-07-29T03:36:22;99306.56;;;13.83;62.79
63500;BME280;49654;51.142;14.924;2022-07-29T03:38:50;99316.53;;;14.01;62.82
63500;BME280;49654;51.142;14.924;2022-07-29T03:41:18;99314.06;;;13.93;62.86
63500;BME280;49654;51.142;14.924;2022-07-29T03:43:47;99315.53;;;14.02;62.75
63500;BME280;49654;51.142;14.924;2022-07-29T03:46:16;99313.75;;;14.09;62.43
63500;BME280;49654;51.142;14.924;2022-07-29T03:48:48;99308.16;;;14.19;62.04
63500;BME280;49654;51.142;14.924;2022-07-29T03:51:16;99312.00;;;14.23;61.69
63500;BME280;49654;51.142;14.924;2022-07-29T03:53:44;99310.84;;;14.32;61.59
63500;BME280;49654;51.142;14.924;2022-07-29T03:56:15;99310.84;;;14.39;60.99
63500;BME280;49654;51.142;14.924;2022-07-29T03:58:43;99315.09;;;14.46;61.24
63500;BME280;49654;51.142;14.924;2022-07-29T04:01:11;99319.34;;;14.47;61.42
63500;BME280;49654;51.142;14.924;2022-07-29T04:03:38;99315.56;;;14.50;61.34
63500;BME280;49654;51.142;14.924;2022-07-29T04:06:06;99315.97;;;14.60;61.30
63500;BME280;49654;51.142;14.924;2022-07-29T04:08:33;99315.22;;;14.66;61.24
63500;BME280;49654;51.142;14.924;2022-07-29T04:11:02;99313.19;;;14.68;61.40
63500;BME280;49654;51.142;14.924;2022-07-29T04:13:30;99315.00;;;14.68;61.75
63500;BME280;49654;51.142;14.924;2022-07-29T04:15:57;99309.38;;;14.71;61.65
63500;BME280;49654;51.142;14.924;2022-07-29T04:18:24;99299.91;;;14.63;61.56
63500;BME280;49654;51.142;14.924;2022-07-29T04:20:51;99313.84;;;14.97;61.08
63500;BME280;49654;51.142;14.924;2022-07-29T04:23:18;99313.47;;;15.07;60.91
63500;BME280;49654;51.142;14.924;2022-07-29T04:25:45;99299.16;;;15.02;60.83
63500;BME280;49654;51.142;14.924;2022-07-29T04:28:13;99317.31;;;15.17;60.45
63500;BME280;49654;51.142;14.924;2022-07-29T04:30:40;99311.28;;;15.17;60.66
63500;BME280;49654;51.142;14.924;2022-07-29T04:33:07;99310.47;;;15.23;60.73
63500;BME280;49654;51.142;14.924;2022-07-29T04:35:35;99306.22;;;15.28;60.94
63500;BME280;49654;51.142;14.924;2022-07-29T04:38:04;99318.31;;;15.30;61.50
63500;BME280;49654;51.142;14.924;2022-07-29T04:40:31;99321.34;;;15.46;61.50
63500;BME280;49654;51.142;14.924;2022-07-29T04:42:59;99318.31;;;15.69;61.02
63500;BME280;49654;51.142;14.924;2022-07-29T04:45:28;99311.66;;;15.87;60.25
63500;BME280;49654;51.142;14.924;2022-07-29T04:47:55;99313.84;;;15.96;59.80
63500;BME280;49654;51.142;14.924;2022-07-29T04:50:22;99313.56;;;16.18;59.63
63500;BME280;49654;51.142;14.924;2022-07-29T04:52:49;99313.66;;;16.43;58.01
63500;BME280;49654;51.142;14.924;2022-07-29T04:55:16;99315.03;;;16.52;57.00
63500;BME280;49654;51.142;14.924;2022-07-29T04:57:43;99311.44;;;16.53;57.15
63500;BME280;49654;51.142;14.924;2022-07-29T05:00:11;99316.97;;;16.70;56.51
63500;BME280;49654;51.142;14.924;2022-07-29T05:02:39;99309.63;;;16.92;56.33
63500;BME280;49654;51.142;14.924;2022-07-29T05:05:07;99311.22;;;16.93;56.44
63500;BME280;49654;51.142;14.924;2022-07-29T05:07:34;99323.59;;;17.11;56.76
63500;BME280;49654;51.142;14.924;2022-07-29T05:10:01;99312.63;;;17.20;56.33
63500;BME280;49654;51.142;14.924;2022-07-29T05:12:28;99321.31;;;17.46;56.28
63500;BME280;49654;51.142;14.924;2022-07-29T05:14:55;99310.31;;;17.56;56.04
63500;BME280;49654;51.142;14.924;2022-07-29T05:17:21;99312.75;;;17.57;55.45
63500;BME280;49654;51.142;14.924;2022-07-29T05:19:50;99303.84;;;17.58;55.04
63500;BME280;49654;51.142;14.924;2022-07-29T05:22:17;99307.34;;;17.52;55.13
63500;BME280;49654;51.142;14.924;2022-07-29T05:24:45;99306.59;;;17.63;55.07
63500;BME280;49654;51.142;14.924;2022-07-29T05:27:11;99315.81;;;17.72;55.60
63500;BME280;49654;51.142;14.924;2022-07-29T05:29:39;99315.88;;;17.66;55.21
63500;BME280;49654;51.142;14.924;2022-07-29T05:32:06;99309.84;;;17.65;55.60
63500;BME280;49654;51.142;14.924;2022-07-29T05:34:33;99308.38;;;17.69;55.78
63500;BME280;49654;51.142;14.924;2022-07-29T05:37:01;99307.34;;;17.70;54.37
63500;BME280;49654;51.142;14.924;2022-07-29T05:39:28;99311.06;;;17.63;54.07
63500;BME280;49654;51.142;14.924;2022-07-29T05:41:55;99300.38;;;17.39;54.07
63500;BME280;49654;51.142;14.924;2022-07-29T05:44:22;99317.31;;;17.43;56.08
63500;BME280;49654;51.142;14.924;2022-07-29T05:46:48;99308.44;;;17.38;56.51
63500;BME280;49654;51.142;14.924;2022-07-29T05:49:15;99318.75;;;17.14;56.42
63500;BME280;49654;51.142;14.924;2022-07-29T05:51:42;99316.44;;;17.24;56.89
63500;BME280;49654;51.142;14.924;2022-07-29T05:54:10;99326.63;;;17.39;56.56
63500;BME280;49654;51.142;14.924;2022-07-29T05:56:37;99323.47;;;17.31;55.35
63500;BME280;49654;51.142;14.924;2022-07-29T05:59:04;99323.50;;;17.24;56.38
63500;BME280;49654;51.142;14.924;2022-07-29T06:01:31;99313.50;;;17.14;56.62
63500;BME280;49654;51.142;14.924;2022-07-29T06:03:58;99315.88;;;17.22;56.90
63500;BME280;49654;51.142;14.924;2022-07-29T06:06:25;99325.72;;;17.27;56.35
63500;BME280;49654;51.142;14.924;2022-07-29T06:08:52;99328.16;;;17.47;56.21
63500;BME280;49654;51.142;14.924;2022-07-29T06:11:20;99326.28;;;17.54;55.42
63500;BME280;49654;51.142;14.924;2022-07-29T06:13:47;99319.22;;;17.80;56.14
63500;BME280;49654;51.142;14.924;2022-07-29T06:16:14;99320.09;;;18.10;55.66
63500;BME280;49654;51.142;14.924;2022-07-29T06:18:41;99315.03;;;18.45;54.03
63500;BME280;49654;51.142;14.924;2022-07-29T06:21:08;99318.16;;;18.72;53.76
63500;BME280;49654;51.142;14.924;2022-07-29T06:23:36;99308.84;;;19.00;53.49
63500;BME280;49654;51.142;14.924;2022-07-29T06:26:04;99309.47;;;19.25;52.10
63500;BME280;49654;51.142;14.924;2022-07-29T06:28:32;99306.66;;;19.62;51.52
63500;BME280;49654;51.142;14.924;2022-07-29T06:30:59;99311.75;;;20.04;50.30
63500;BME280;49654;51.142;14.924;2022-07-29T06:33:26;99319.91;;;20.43;46.52
63500;BME280;49654;51.142;14.924;2022-07-29T06:35:53;99320.38;;;20.52;45.71
63500;BME280;49654;51.142;14.924;2022-07-29T06:38:20;99328.66;;;20.32;46.02
63500;BME280;49654;51.142;14.924;2022-07-29T06:40:47;99322.22;;;20.39;46.40
63500;BME280;49654;51.142;14.924;2022-07-29T06:43:33;99316.41;;;20.66;46.32
63500;BME280;49654;51.142;14.924;2022-07-29T06:46:02;99308.53;;;20.83;46.20
63500;BME280;49654;51.142;14.924;2022-07-29T06:48:30;99321.25;;;21.02;43.97
63500;BME280;49654;51.142;14.924;2022-07-29T06:50:57;99328.72;;;21.22;44.64
63500;BME280;49654;51.142;14.924;2022-07-29T06:53:24;99323.91;;;21.19;43.80
63500;BME280;49654;51.142;14.924;2022-07-29T06:55:51;99322.91;;;21.20;45.05
63500;BME280;49654;51.142;14.924;2022-07-29T06:58:18;99326.69;;;21.41;44.92
63500;BME280;49654;51.142;14.924;2022-07-29T07:00:47;99328.25;;;21.59;43.62
63500;BME280;49654;51.142;14.924;2022-07-29T07:03:14;99323.38;;;21.68;42.55
63500;BME280;49654;51.142;14.924;2022-07-29T07:05:41;99308.38;;;21.73;43.00
63500;BME280;49654;51.142;14.924;2022-07-29T07:08:08;99326.41;;;21.98;43.62
63500;BME280;49654;51.142;14.924;2022-07-29T07:10:36;99322.81;;;22.27;42.51
63500;BME280;49654;51.142;14.924;2022-07-29T07:13:03;99332.66;;;22.53;41.34
63500;BME280;49654;51.142;14.924;2022-07-29T07:15:31;99330.63;;;22.65;40.76
63500;BME280;49654;51.142;14.924;2022-07-29T07:17:59;99323.28;;;22.94;39.69
63500;BME280;49654;51.142;14.924;2022-07-29T07:20:26;99324.53;;;23.19;39.75
63500;BME280;49654;51.142;14.924;2022-07-29T07:22:53;99322.16;;;23.17;38.95
63500;BME280;49654;51.142;14.924;2022-07-29T07:25:20;99322.72;;;23.24;39.19
63500;BME280;49654;51.142;14.924;2022-07-29T07:27:47;99317.31;;;23.46;39.86
63500;BME280;49654;51.142;14.924;2022-07-29T07:30:14;99292.47;;;23.53;38.15
63500;BME280;49654;51.142;14.924;2022-07-29T07:32:41;99306.81;;;23.62;37.98
63500;BME280;49654;51.142;14.924;2022-07-29T07:35:10;99311.59;;;23.60;39.31
63500;BME280;49654;51.142;14.924;2022-07-29T07:37:38;99307.97;;;23.76;38.96
63500;BME280;49654;51.142;14.924;2022-07-29T07:40:07;99305.13;;;23.88;39.37
63500;BME280;49654;51.142;14.924;2022-07-29T07:42:34;99311.91;;;24.16;38.93
63500;BME280;49654;51.142;14.924;2022-07-29T07:45:01;99314.31;;;24.28;38.36
63500;BME280;49654;51.142;14.924;2022-07-29T07:47:28;99318.00;;;24.16;38.58
63500;BME280;49654;51.142;14.924;2022-07-29T07:49:55;99313.38;;;24.54;38.25
63500;BME280;49654;51.142;14.924;2022-07-29T07:52:23;99316.59;;;24.82;36.93
63500;BME280;49654;51.142;14.924;2022-07-29T07:54:50;99316.03;;;24.69;36.53
63500;BME280;49654;51.142;14.924;2022-07-29T07:57:17;99306.53;;;25.09;36.37
63500;BME280;49654;51.142;14.924;2022-07-29T07:59:44;99311.28;;;25.38;34.96
63500;BME280;49654;51.142;14.924;2022-07-29T08:02:11;99305.94;;;25.63;35.58
63500;BME280;49654;51.142;14.924;2022-07-29T08:04:37;99318.84;;;26.11;35.44
63500;BME280;49654;51.142;14.924;2022-07-29T08:07:06;99308.94;;;26.27;35.84
63500;BME280;49654;51.142;14.924;2022-07-29T08:09:35;99316.22;;;26.60;34.06
63500;BME280;49654;51.142;14.924;2022-07-29T08:12:03;99314.81;;;26.73;34.54
63500;BME280;49654;51.142;14.924;2022-07-29T08:14:32;99318.72;;;26.81;35.18
63500;BME280;49654;51.142;14.924;2022-07-29T08:16:59;99318.69;;;26.52;35.26
63500;BME280;49654;51.142;14.924;2022-07-29T08:19:27;99316.50;;;26.54;34.89
63500;BME280;49654;51.142;14.924;2022-07-29T08:21:54;99320.63;;;26.31;35.80
63500;BME280;49654;51.142;14.924;2022-07-29T08:24:21;99320.69;;;26.15;35.52
63500;BME280;49654;51.142;14.924;2022-07-29T08:27:07;99324.56;;;26.38;36.17
63500;BME280;49654;51.142;14.924;2022-07-29T08:29:33;99316.72;;;26.62;36.40
63500;BME280;49654;51.142;14.924;2022-07-29T08:32:00;99310.06;;;26.65;36.20
63500;BME280;49654;51.142;14.924;2022-07-29T08:34:27;99303.47;;;27.26;34.72
63500;BME280;49654;51.142;14.924;2022-07-29T08:36:54;99297.72;;;27.66;33.99
63500;BME280;49654;51.142;14.924;2022-07-29T08:39:22;99280.72;;;27.62;32.48
63500;BME280;49654;51.142;14.924;2022-07-29T08:41:50;99296.63;;;27.73;32.96
63500;BME280;49654;51.142;14.924;2022-07-29T08:44:18;99291.50;;;28.00;34.03
63500;BME280;49654;51.142;14.924;2022-07-29T08:46:47;99283.88;;;28.12;33.39
63500;BME280;49654;51.142;14.924;2022-07-29T08:49:15;99290.75;;;28.18;33.11
63500;BME280;49654;51.142;14.924;2022-07-29T08:51:42;99295.72;;;28.25;32.64
63500;BME280;49654;51.142;14.924;2022-07-29T08:54:11;99276.91;;;28.54;32.78
63500;BME280;49654;51.142;14.924;2022-07-29T08:56:38;99276.50;;;28.80;33.51
63500;BME280;49654;51.142;14.924;2022-07-29T08:59:07;99291.13;;;29.34;31.73
63500;BME280;49654;51.142;14.924;2022-07-29T09:01:37;99286.63;;;29.89;32.32
63500;BME280;49654;51.142;14.924;2022-07-29T09:04:10;99279.84;;;29.92;29.99
63500;BME280;49654;51.142;14.924;2022-07-29T09:06:40;99281.59;;;30.10;30.64
63500;BME280;49654;51.142;14.924;2022-07-29T09:09:08;99279.03;;;30.05;29.71
63500;BME280;49654;51.142;14.924;2022-07-29T09:11:36;99281.09;;;30.36;31.39
63500;BME280;49654;51.142;14.924;2022-07-29T09:14:03;99273.25;;;30.62;30.10
63500;BME280;49654;51.142;14.924;2022-07-29T09:16:45;99282.69;;;30.37;30.67
63500;BME280;49654;51.142;14.924;2022-07-29T09:19:23;99283.16;;;30.75;29.87
63500;BME280;49654;51.142;14.924;2022-07-29T09:21:51;99275.38;;;30.29;30.30
63500;BME280;49654;51.142;14.924;2022-07-29T09:24:36;99284.47;;;30.28;28.68
63500;BME280;49654;51.142;14.924;2022-07-29T09:27:08;99281.31;;;30.26;31.10
63500;BME280;49654;51.142;14.924;2022-07-29T09:29:36;99253.88;;;30.87;29.46
63500;BME280;49654;51.142;14.924;2022-07-29T09:32:06;99282.94;;;31.16;29.18
63500;BME280;49654;51.142;14.924;2022-07-29T09:34:34;99271.88;;;31.09;29.44
63500;BME280;49654;51.142;14.924;2022-07-29T09:37:02;99273.22;;;30.98;28.74
63500;BME280;49654;51.142;14.924;2022-07-29T09:39:30;99278.78;;;30.65;30.18
63500;BME280;49654;51.142;14.924;2022-07-29T09:42:00;99278.13;;;30.37;29.38
63500;BME280;49654;51.142;14.924;2022-07-29T09:44:40;99277.03;;;30.61;29.82
63500;BME280;49654;51.142;14.924;2022-07-29T09:47:09;99260.69;;;30.26;30.08
63500;BME280;49654;51.142;14.924;2022-07-29T09:49:50;99270.72;;;30.21;29.92
63500;BME280;49654;51.142;14.924;2022-07-29T09:52:18;99277.28;;;29.87;31.13
63500;BME280;49654;51.142;14.924;2022-07-29T09:54:45;99269.03;;;29.97;31.55
63500;BME280;49654;51.142;14.924;2022-07-29T09:57:23;99259.31;;;30.01;31.43
63500;BME280;49654;51.142;14.924;2022-07-29T09:59:56;99263.09;;;30.00;30.21
63500;BME280;49654;51.142;14.924;2022-07-29T10:02:29;99268.75;;;29.99;29.32
63500;BME280;49654;51.142;14.924;2022-07-29T10:04:59;99267.78;;;29.81;31.43
63500;BME280;49654;51.142;14.924;2022-07-29T10:07:27;99266.97;;;29.94;30.91
63500;BME280;49654;51.142;14.924;2022-07-29T10:10:09;99258.94;;;30.44;30.62
63500;BME280;49654;51.142;14.924;2022-07-29T10:12:48;99263.81;;;30.64;28.80
63500;BME280;49654;51.142;14.924;2022-07-29T10:15:16;99267.44;;;30.82;29.72
63500;BME280;49654;51.142;14.924;2022-07-29T10:17:45;99266.31;;;31.37;29.39
63500;BME280;49654;51.142;14.924;2022-07-29T10:20:12;99252.47;;;31.44;29.67
63500;BME280;49654;51.142;14.924;2022-07-29T10:22:40;99263.03;;;31.97;27.42
63500;BME280;49654;51.142;14.924;2022-07-29T10:25:08;99260.91;;;31.77;27.80
63500;BME280;49654;51.142;14.924;2022-07-29T10:27:36;99260.38;;;31.49;27.25
63500;BME280;49654;51.142;14.924;2022-07-29T10:30:03;99265.22;;;31.78;27.28
63500;BME280;49654;51.142;14.924;2022-07-29T10:32:39;99251.06;;;32.21;27.48
63500;BME280;49654;51.142;14.924;2022-07-29T10:35:24;99255.81;;;32.58;26.15
63500;BME280;49654;51.142;14.924;2022-07-29T10:38:10;99249.66;;;32.40;26.02
63500;BME280;49654;51.142;14.924;2022-07-29T10:40:47;99251.00;;;31.86;26.87
63500;BME280;49654;51.142;14.924;2022-07-29T10:43:37;99247.09;;;32.09;26.73
63500;BME280;49654;51.142;14.924;2022-07-29T10:46:07;99244.88;;;32.03;25.93
63500;BME280;49654;51.142;14.924;2022-07-29T10:48:34;99246.78;;;32.11;26.90
63500;BME280;49654;51.142;14.924;2022-07-29T10:51:04;99229.25;;;31.87;26.32
63500;BME280;49654;51.142;14.924;2022-07-29T10:53:47;99242.72;;;31.56;26.51
63500;BME280;49654;51.142;14.924;2022-07-29T10:56:25;99230.03;;;32.05;27.07
63500;BME280;49654;51.142;14.924;2022-07-29T10:59:23;99236.50;;;31.87;27.08
63500;BME280;49654;51.142;14.924;2022-07-29T11:01:52;99234.00;;;32.51;27.23
63500;BME280;49654;51.142;14.924;2022-07-29T11:07:24;99236.59;;;33.03;26.98
63500;BME280;49654;51.142;14.924;2022-07-29T11:10:19;99231.25;;;32.86;26.11
63500;BME280;49654;51.142;14.924;2022-07-29T11:12:47;99230.78;;;32.84;25.86
63500;BME280;49654;51.142;14.924;2022-07-29T11:15:15;99233.34;;;32.37;27.55
63500;BME280;49654;51.142;14.924;2022-07-29T11:18:06;99238.94;;;31.57;26.85
63500;BME280;49654;51.142;14.924;2022-07-29T11:20:38;99231.69;;;31.27;28.77
63500;BME280;49654;51.142;14.924;2022-07-29T11:23:22;99231.75;;;31.04;30.03
63500;BME280;49654;51.142;14.924;2022-07-29T11:26:16;99226.44;;;30.82;30.13
63500;BME280;49654;51.142;14.924;2022-07-29T11:28:52;99226.94;;;30.84;29.47
63500;BME280;49654;51.142;14.924;2022-07-29T11:31:33;99228.41;;;30.99;30.51
63500;BME280;49654;51.142;14.924;2022-07-29T11:34:21;99229.16;;;30.68;29.22
63500;BME280;49654;51.142;14.924;2022-07-29T11:37:22;99224.91;;;30.89;28.47
63500;BME280;49654;51.142;14.924;2022-07-29T11:40:12;99223.22;;;31.33;28.05
63500;BME280;49654;51.142;14.924;2022-07-29T11:42:47;99227.81;;;32.25;26.72
63500;BME280;49654;51.142;14.924;2022-07-29T11:45:22;99225.97;;;33.15;25.78
63500;BME280;49654;51.142;14.924;2022-07-29T11:47:52;99225.22;;;33.36;26.32
63500;BME280;49654;51.142;14.924;2022-07-29T11:50:34;99216.75;;;33.84;24.69
63500;BME280;49654;51.142;14.924;2022-07-29T11:53:02;99222.38;;;33.71;24.07
63500;BME280;49654;51.142;14.924;2022-07-29T11:55:31;99212.50;;;33.75;23.99
63500;BME280;49654;51.142;14.924;2022-07-29T11:58:01;99214.13;;;33.76;24.85
63500;BME280;49654;51.142;14.924;2022-07-29T12:00:30;99197.41;;;33.61;23.58
63500;BME280;49654;51.142;14.924;2022-07-29T12:02:58;99209.41;;;32.96;24.02
63500;BME280;49654;51.142;14.924;2022-07-29T12:05:34;99207.13;;;33.15;25.47
63500;BME280;49654;51.142;14.924;2022-07-29T12:08:12;99204.44;;;34.37;24.51
63500;BME280;49654;51.142;14.924;2022-07-29T12:10:42;99198.72;;;35.95;22.55
63500;BME280;49654;51.142;14.924;2022-07-29T12:13:09;99201.41;;;37.26;19.75
63500;BME280;49654;51.142;14.924;2022-07-29T12:15:37;99192.00;;;38.10;18.55
63500;BME280;49654;51.142;14.924;2022-07-29T12:18:14;99195.59;;;36.21;20.95
63500;BME280;49654;51.142;14.924;2022-07-29T12:20:41;99200.03;;;35.36;22.20
63500;BME280;49654;51.142;14.924;2022-07-29T12:23:09;99205.78;;;35.22;22.38
63500;BME280;49654;51.142;14.924;2022-07-29T12:25:39;99184.97;;;35.35;22.15
63500;BME280;49654;51.142;14.924;2022-07-29T12:28:09;99193.63;;;34.58;22.30
63500;BME280;49654;51.142;14.924;2022-07-29T12:30:39;99189.66;;;33.81;24.56
63500;BME280;49654;51.142;14.924;2022-07-29T12:33:14;99195.22;;;34.05;23.46
63500;BME280;49654;51.142;14.924;2022-07-29T12:35:42;99193.44;;;34.09;23.59
63500;BME280;49654;51.142;14.924;2022-07-29T12:38:10;99191.19;;;34.11;22.89
63500;BME280;49654;51.142;14.924;2022-07-29T12:40:38;99199.69;;;34.01;23.53
63500;BME280;49654;51.142;14.924;2022-07-29T12:43:08;99207.31;;;33.99;24.42
63500;BME280;49654;51.142;14.924;2022-07-29T12:45:36;99182.00;;;33.41;24.42
63500;BME280;49654;51.142;14.924;2022-07-29T12:48:04;99202.06;;;33.52;24.26
63500;BME280;49654;51.142;14.924;2022-07-29T12:50:34;99185.78;;;33.40;25.27
63500;BME280;49654;51.142;14.924;2022-07-29T12:53:08;99186.13;;;33.89;24.71
63500;BME280;49654;51.142;14.924;2022-07-29T12:55:41;99185.78;;;34.66;22.93
63500;BME280;49654;51.142;14.924;2022-07-29T12:58:09;99187.09;;;35.05;22.97
63500;BME280;49654;51.142;14.924;2022-07-29T13:00:36;99188.81;;;34.64;23.39
63500;BME280;49654;51.142;14.924;2022-07-29T13:03:03;99197.47;;;34.57;22.77
63500;BME280;49654;51.142;14.924;2022-07-29T13:05:41;99192.19;;;34.61;22.14
63500;BME280;49654;51.142;14.924;2022-07-29T13:08:12;99189.72;;;34.35;22.78